createdAt,value
2023-02-17T00:01:39.742Z,3.41
2023-02-17T00:04:07.859Z,3.43
2023-02-17T00:06:35.989Z,3.44
2023-02-17T00:09:04.608Z,3.48
2023-02-17T00:11:32.740Z,3.57
2023-02-17T00:14:01.437Z,3.57
2023-02-17T00:16:29.733Z,3.63
2023-02-17T00:19:00.984Z,3.76
2023-02-17T00:21:32.876Z,3.80
2023-02-17T00:24:01.506Z,3.71
2023-02-17T00:26:29.898Z,3.72
2023-02-17T00:28:59.783Z,3.75
2023-02-17T00:31:28.017Z,3.78
2023-02-17T00:33:56.860Z,3.80
2023-02-17T00:36:27.208Z,3.78
2023-02-17T00:38:57.524Z,3.78
2023-02-17T00:41:27.059Z,3.72
2023-02-17T00:43:55.467Z,3.70
2023-02-17T00:46:23.978Z,3.70
2023-02-17T00:48:52.243Z,3.78
2023-02-17T00:51:21.100Z,3.78
2023-02-17T00:53:51.050Z,3.83
2023-02-17T00:56:19.442Z,3.76
2023-02-17T00:58:47.573Z,3.79
2023-02-17T01:01:15.858Z,3.71
2023-02-17T01:03:44.015Z,3.75
2023-02-17T01:06:20.006Z,3.78
2023-02-17T01:08:48.254Z,3.90
2023-02-17T01:11:20.152Z,3.86
2023-02-17T01:13:48.339Z,3.92
2023-02-17T01:16:19.853Z,3.89
2023-02-17T01:18:47.983Z,3.93
2023-02-17T01:21:19.736Z,3.99
2023-02-17T01:23:49.511Z,3.99
2023-02-17T01:26:21.723Z,4.02
2023-02-17T01:28:51.385Z,4.04
2023-02-17T01:31:20.302Z,3.97
2023-02-17T01:33:48.566Z,4.02
2023-02-17T01:36:18.983Z,4.04
2023-02-17T01:38:47.589Z,4.01
2023-02-17T01:41:18.134Z,4.03
2023-02-17T01:44:21.877Z,4.08
2023-02-17T01:46:52.969Z,4.12
2023-02-17T01:49:32.682Z,4.11
2023-02-17T01:52:06.941Z,4.07
2023-02-17T01:54:42.519Z,4.10
2023-02-17T01:57:12.444Z,4.08
2023-02-17T01:59:42.389Z,4.12
2023-02-17T02:02:12.619Z,4.15
2023-02-17T02:04:45.149Z,4.22
2023-02-17T02:07:18.209Z,4.26
2023-02-17T02:09:52.078Z,4.24
2023-02-17T02:12:21.815Z,4.26
2023-02-17T02:14:51.115Z,4.18
2023-02-17T02:17:34.925Z,4.14
2023-02-17T02:20:45.176Z,4.12
2023-02-17T02:23:34.640Z,4.19
2023-02-17T02:26:33.861Z,4.09
2023-02-17T02:29:26.433Z,4.06
2023-02-17T02:32:09.435Z,4.04
2023-02-17T02:34:44.770Z,4.10
2023-02-17T02:37:18.921Z,4.06
2023-02-17T02:39:51.860Z,3.99
2023-02-17T02:42:23.255Z,4.05
2023-02-17T02:44:51.815Z,4.06
2023-02-17T02:47:43.673Z,4.08
2023-02-17T02:50:15.653Z,4.06
2023-02-17T02:52:56.835Z,4.05
2023-02-17T02:55:37.808Z,4.02
2023-02-17T02:58:14.196Z,3.95
2023-02-17T03:00:48.344Z,3.95
2023-02-17T03:03:26.394Z,3.91
2023-02-17T03:06:02.745Z,3.88
2023-02-17T03:08:35.857Z,3.84
2023-02-17T03:11:04.747Z,3.94
2023-02-17T03:13:38.060Z,3.86
2023-02-17T03:16:07.318Z,3.82
2023-02-17T03:18:36.511Z,3.77
2023-02-17T03:21:13.955Z,3.75
2023-02-17T03:23:42.074Z,3.67
2023-02-17T03:26:10.234Z,3.65
2023-02-17T03:28:38.509Z,3.62
2023-02-17T03:31:06.645Z,3.59
2023-02-17T03:33:34.781Z,3.60
2023-02-17T03:36:03.261Z,3.52
2023-02-17T03:38:32.811Z,3.54
2023-02-17T03:41:00.905Z,3.58
2023-02-17T03:43:29.013Z,3.52
2023-02-17T03:45:57.217Z,3.58
2023-02-17T03:48:25.311Z,3.51
2023-02-17T03:50:53.377Z,3.54
2023-02-17T03:53:21.553Z,3.58
2023-02-17T03:55:51.033Z,3.61
2023-02-17T03:58:19.164Z,3.60
2023-02-17T04:00:47.240Z,3.67
2023-02-17T04:03:15.327Z,3.68
2023-02-17T04:05:45.792Z,3.81
2023-02-17T04:08:14.001Z,3.86
2023-02-17T04:10:42.077Z,3.88
2023-02-17T04:13:11.862Z,3.94
2023-02-17T04:15:39.969Z,4.01
2023-02-17T04:18:08.028Z,3.98
2023-02-17T04:20:36.325Z,4.00
2023-02-17T04:23:04.434Z,4.08
2023-02-17T04:25:35.266Z,4.07
2023-02-17T04:28:03.481Z,4.06
2023-02-17T04:30:33.320Z,4.04
2023-02-17T04:33:01.790Z,4.05
2023-02-17T04:35:30.092Z,4.03
2023-02-17T04:37:58.280Z,3.99
2023-02-17T04:40:26.673Z,3.99
2023-02-17T04:42:54.753Z,3.89
2023-02-17T04:45:24.500Z,3.75
2023-02-17T04:47:54.179Z,3.72
2023-02-17T04:50:22.771Z,3.77
2023-02-17T04:52:50.872Z,3.82
2023-02-17T04:55:19.107Z,3.84
2023-02-17T04:57:47.264Z,3.86
2023-02-17T05:00:15.843Z,3.88
2023-02-17T05:02:44.718Z,3.89
2023-02-17T05:05:15.380Z,3.93
2023-02-17T05:07:43.805Z,3.96
2023-02-17T05:10:12.679Z,4.05
2023-02-17T05:12:41.144Z,4.06
2023-02-17T05:15:10.302Z,4.13
2023-02-17T05:17:38.740Z,4.15
2023-02-17T05:20:08.918Z,4.19
2023-02-17T05:22:38.456Z,4.28
2023-02-17T05:25:07.427Z,4.27
2023-02-17T05:27:35.627Z,4.33
2023-02-17T05:30:04.428Z,4.40
2023-02-17T05:32:32.568Z,4.57
2023-02-17T05:35:00.743Z,4.66
2023-02-17T05:37:28.896Z,4.81
2023-02-17T05:39:58.358Z,5.13
2023-02-17T05:42:28.933Z,5.46
2023-02-17T05:44:57.717Z,5.59
2023-02-17T05:47:27.614Z,5.92
2023-02-17T05:49:56.014Z,6.12
2023-02-17T05:52:24.144Z,6.22
2023-02-17T05:54:52.279Z,6.20
2023-02-17T05:57:22.047Z,6.44
2023-02-17T05:59:50.212Z,6.62
2023-02-17T06:02:18.437Z,6.56
2023-02-17T06:04:46.659Z,6.55
2023-02-17T06:07:15.003Z,6.58
2023-02-17T06:09:43.230Z,6.56
2023-02-17T06:12:13.021Z,6.55
2023-02-17T06:14:42.911Z,6.54
2023-02-17T06:17:11.783Z,6.70
2023-02-17T06:19:39.960Z,6.86
2023-02-17T06:22:08.070Z,6.71
2023-02-17T06:24:36.131Z,7.02
2023-02-17T06:27:07.665Z,7.08
2023-02-17T06:29:35.886Z,7.20
2023-02-17T06:32:05.678Z,7.25
2023-02-17T06:34:33.784Z,7.35
2023-02-17T06:37:02.069Z,7.34
2023-02-17T06:39:30.119Z,7.45
2023-02-17T06:41:58.193Z,7.27
2023-02-17T06:44:27.042Z,7.19
2023-02-17T06:46:55.271Z,7.17
2023-02-17T06:49:24.777Z,7.21
2023-02-17T06:51:53.146Z,7.28
2023-02-17T06:54:21.368Z,7.29
2023-02-17T06:56:49.589Z,7.34
2023-02-17T06:59:17.648Z,7.38
2023-02-17T07:01:45.804Z,7.43
2023-02-17T07:04:13.976Z,7.53
2023-02-17T07:06:43.874Z,7.62
2023-02-17T07:09:13.897Z,7.78
2023-02-17T07:11:42.982Z,7.92
2023-02-17T07:14:11.156Z,7.90
2023-02-17T07:16:40.190Z,7.93
2023-02-17T07:19:08.411Z,8.04
2023-02-17T07:21:36.521Z,8.15
2023-02-17T07:24:06.620Z,8.05
2023-02-17T07:26:37.749Z,8.07
2023-02-17T07:29:09.248Z,8.19
2023-02-17T07:31:38.800Z,8.17
2023-02-17T07:34:07.156Z,8.27
2023-02-17T07:36:35.967Z,8.37
2023-02-17T07:39:07.183Z,8.49
2023-02-17T07:41:35.446Z,8.50
2023-02-17T07:44:03.683Z,8.60
2023-02-17T07:46:31.898Z,8.61
2023-02-17T07:49:00.352Z,8.85
2023-02-17T07:51:28.878Z,9.05
2023-02-17T07:53:57.047Z,9.31
2023-02-17T07:56:26.706Z,9.30
2023-02-17T07:58:55.060Z,9.45
2023-02-17T08:01:24.777Z,9.62
2023-02-17T08:03:53.872Z,9.73
2023-02-17T08:06:24.237Z,9.85
2023-02-17T08:09:11.012Z,9.88
2023-02-17T08:11:58.555Z,10.02
2023-02-17T08:14:28.731Z,9.92
2023-02-17T08:16:57.301Z,10.06
2023-02-17T08:19:28.342Z,9.79
2023-02-17T08:21:58.359Z,9.95
2023-02-17T08:24:27.399Z,10.03
2023-02-17T08:26:57.160Z,10.06
2023-02-17T08:29:25.348Z,10.13
2023-02-17T08:31:54.518Z,9.91
2023-02-17T08:34:22.736Z,10.04
2023-02-17T08:36:50.874Z,10.12
2023-02-17T08:39:19.540Z,10.11
2023-02-17T08:41:48.020Z,10.13
2023-02-17T08:44:21.029Z,10.22
2023-02-17T08:46:51.109Z,10.21
2023-02-17T08:49:21.968Z,10.46
2023-02-17T08:51:50.934Z,10.59
2023-02-17T08:54:19.182Z,10.55
2023-02-17T08:56:47.381Z,10.58
2023-02-17T08:59:15.671Z,10.56
2023-02-17T09:01:45.794Z,10.37
2023-02-17T09:04:15.376Z,10.38
2023-02-17T09:06:45.981Z,10.35
2023-02-17T09:09:15.989Z,10.25
2023-02-17T09:11:45.263Z,10.37
2023-02-17T09:14:13.769Z,10.29
2023-02-17T09:16:42.256Z,10.28
2023-02-17T09:19:11.827Z,10.51
2023-02-17T09:21:39.901Z,10.56
2023-02-17T09:24:08.277Z,10.67
2023-02-17T09:26:37.129Z,10.65
2023-02-17T09:29:05.898Z,10.74
2023-02-17T09:31:36.111Z,10.70
2023-02-17T09:34:05.457Z,10.80
2023-02-17T09:36:38.988Z,10.95
2023-02-17T09:39:07.538Z,10.89
2023-02-17T09:41:42.738Z,10.89
2023-02-17T09:44:21.926Z,10.73
2023-02-17T09:47:02.701Z,10.70
2023-02-17T09:49:38.087Z,10.79
2023-02-17T09:52:15.689Z,10.84
2023-02-17T09:54:53.217Z,10.65
2023-02-17T09:57:25.812Z,10.68
2023-02-17T09:59:58.206Z,10.69
2023-02-17T10:02:31.019Z,10.66
2023-02-17T10:05:04.530Z,10.72
2023-02-17T10:07:41.392Z,10.85
2023-02-17T10:10:12.977Z,10.94
2023-02-17T10:12:47.171Z,11.04
2023-02-17T10:15:19.505Z,11.17
2023-02-17T10:17:53.254Z,11.38
2023-02-17T10:20:24.456Z,11.59
2023-02-17T10:22:59.018Z,11.36
2023-02-17T10:25:50.077Z,11.55
2023-02-17T10:28:23.735Z,11.72
2023-02-17T10:31:03.544Z,11.72
2023-02-17T10:33:37.687Z,11.78
2023-02-17T10:36:14.074Z,11.69
2023-02-17T10:38:51.710Z,11.64
2023-02-17T10:41:24.208Z,11.88
2023-02-17T10:43:53.230Z,11.71
2023-02-17T10:46:27.759Z,11.90
2023-02-17T10:48:58.626Z,11.78
2023-02-17T10:51:29.333Z,11.87
2023-02-17T10:54:04.284Z,11.71
2023-02-17T10:56:38.910Z,11.76
2023-02-17T10:59:14.489Z,11.87
2023-02-17T11:01:43.007Z,11.93
2023-02-17T11:04:14.043Z,11.94
2023-02-17T11:06:45.526Z,12.21
2023-02-17T11:09:28.687Z,12.20
2023-02-17T11:12:00.825Z,12.25
2023-02-17T11:14:31.462Z,12.28
2023-02-17T11:17:01.974Z,12.26
2023-02-17T11:19:34.047Z,12.22
2023-02-17T11:22:04.691Z,12.14
2023-02-17T11:24:36.510Z,12.19
2023-02-17T11:27:09.572Z,12.07
2023-02-17T11:29:38.362Z,12.03
2023-02-17T11:32:09.121Z,11.96
2023-02-17T11:34:39.907Z,11.86
2023-02-17T11:37:22.162Z,11.83
2023-02-17T11:39:53.589Z,11.96
2023-02-17T11:42:24.075Z,11.99
2023-02-17T11:44:53.052Z,12.06
2023-02-17T11:47:29.971Z,11.98
2023-02-17T11:50:10.349Z,11.94
2023-02-17T11:53:03.337Z,11.97
2023-02-17T11:55:51.887Z,12.01
2023-02-17T11:58:31.189Z,12.13
2023-02-17T12:01:12.878Z,12.22
2023-02-17T12:04:03.956Z,12.33
2023-02-17T12:06:44.537Z,12.38
2023-02-17T12:09:22.862Z,12.54
2023-02-17T12:12:02.675Z,12.55
2023-02-17T12:14:44.282Z,12.46
2023-02-17T12:17:22.915Z,12.48
2023-02-17T12:19:59.332Z,12.45
2023-02-17T12:22:34.460Z,12.54
2023-02-17T12:25:23.106Z,12.53
2023-02-17T12:28:10.577Z,12.67
2023-02-17T12:30:53.688Z,12.64
2023-02-17T12:33:47.934Z,12.54
2023-02-17T12:36:18.268Z,12.64
2023-02-17T12:38:50.930Z,12.64
2023-02-17T12:41:22.998Z,12.69
2023-02-17T12:43:56.243Z,12.68
2023-02-17T12:46:28.438Z,12.54
2023-02-17T12:49:01.305Z,12.55
2023-02-17T12:51:35.309Z,12.70
2023-02-17T12:54:09.805Z,12.70
2023-02-17T12:56:58.570Z,12.71
2023-02-17T12:59:35.064Z,12.87
2023-02-17T13:02:05.291Z,12.76
2023-02-17T13:04:35.073Z,12.76
2023-02-17T13:07:34.805Z,12.88
2023-02-17T13:10:03.522Z,13.01
2023-02-17T13:12:41.570Z,12.94
2023-02-17T13:15:31.434Z,12.93
2023-02-17T13:18:03.559Z,13.12
2023-02-17T13:20:54.224Z,13.06
2023-02-17T13:23:31.496Z,12.86
2023-02-17T13:26:09.980Z,12.91
2023-02-17T13:28:40.456Z,12.85
2023-02-17T13:31:16.545Z,12.89
2023-02-17T13:33:48.385Z,12.91
2023-02-17T13:36:21.973Z,12.97
2023-02-17T13:39:01.712Z,13.03
2023-02-17T13:41:34.579Z,13.03
2023-02-17T13:44:25.351Z,13.05
2023-02-17T13:46:57.866Z,12.96
2023-02-17T13:49:28.342Z,12.94
2023-02-17T13:51:56.464Z,12.97
2023-02-17T13:54:24.829Z,12.75
2023-02-17T13:56:53.897Z,12.74
2023-02-17T13:59:27.094Z,12.67
2023-02-17T14:01:56.611Z,12.68
2023-02-17T14:04:28.031Z,12.55
2023-02-17T14:06:59.558Z,12.57
2023-02-17T14:09:30.726Z,12.37
2023-02-17T14:12:02.250Z,12.32
2023-02-17T14:14:33.971Z,12.34
2023-02-17T14:17:05.780Z,12.27
2023-02-17T14:19:44.301Z,12.18
2023-02-17T14:22:25.977Z,12.15
2023-02-17T14:25:01.011Z,12.04
2023-02-17T14:27:29.304Z,12.06
2023-02-17T14:29:57.419Z,12.00
2023-02-17T14:32:32.754Z,11.95
2023-02-17T14:35:21.265Z,11.88
2023-02-17T14:37:50.480Z,11.82
2023-02-17T14:40:21.332Z,11.69
2023-02-17T14:42:49.492Z,11.67
2023-02-17T14:45:18.134Z,11.47
2023-02-17T14:47:48.191Z,11.50
2023-02-17T14:50:17.542Z,11.49
2023-02-17T14:52:47.545Z,11.33
2023-02-17T14:55:20.388Z,11.19
2023-02-17T14:57:48.541Z,11.14
2023-02-17T15:00:18.050Z,11.04
2023-02-17T15:02:47.902Z,10.96
2023-02-17T15:05:16.099Z,10.89
2023-02-17T15:07:44.381Z,10.86
2023-02-17T15:10:19.404Z,10.79
2023-02-17T15:12:48.172Z,10.75
2023-02-17T15:15:17.582Z,10.64
2023-02-17T15:17:47.335Z,10.51
2023-02-17T15:20:17.401Z,10.44
2023-02-17T15:22:45.782Z,10.40
2023-02-17T15:25:16.016Z,10.31
2023-02-17T15:27:44.750Z,10.21
2023-02-17T15:30:14.691Z,10.14
2023-02-17T15:32:43.180Z,10.15
2023-02-17T15:35:21.304Z,10.14
2023-02-17T15:37:49.831Z,10.11
2023-02-17T15:40:20.203Z,10.10
2023-02-17T15:42:54.276Z,10.04
2023-02-17T15:45:23.692Z,9.88
2023-02-17T15:47:53.767Z,9.83
2023-02-17T15:50:24.054Z,9.71
2023-02-17T15:52:52.556Z,9.62
2023-02-17T15:55:21.588Z,9.55
2023-02-17T15:57:52.279Z,9.45
2023-02-17T16:00:23.875Z,9.43
2023-02-17T16:02:52.631Z,9.29
2023-02-17T16:05:24.533Z,9.19
2023-02-17T16:07:53.209Z,9.08
2023-02-17T16:10:23.650Z,8.92
2023-02-17T16:12:53.474Z,8.77
2023-02-17T16:15:23.936Z,8.66
2023-02-17T16:17:52.494Z,8.57
2023-02-17T16:20:24.894Z,8.42
2023-02-17T16:22:53.274Z,8.36
2023-02-17T16:25:23.078Z,8.23
2023-02-17T16:27:53.282Z,8.16
2023-02-17T16:30:25.464Z,8.25
2023-02-17T16:32:53.904Z,8.12
2023-02-17T16:35:25.892Z,8.01
2023-02-17T16:37:57.167Z,7.83
2023-02-17T16:40:27.411Z,7.71
2023-02-17T16:42:55.780Z,7.78
2023-02-17T16:45:25.737Z,7.79
2023-02-17T16:47:57.019Z,7.87
2023-02-17T16:50:29.027Z,7.87
2023-02-17T16:53:00.336Z,7.81
2023-02-17T16:55:30.343Z,7.71
2023-02-17T16:57:59.188Z,7.64
2023-02-17T17:00:30.186Z,7.74
2023-02-17T17:02:59.258Z,7.73
2023-02-17T17:05:30.250Z,7.57
2023-02-17T17:07:58.538Z,7.40
2023-02-17T17:10:29.599Z,7.25
2023-02-17T17:12:57.714Z,7.09
2023-02-17T17:15:26.035Z,7.03
2023-02-17T17:17:58.419Z,6.92
2023-02-17T17:20:32.021Z,6.82
2023-02-17T17:23:01.057Z,6.77
2023-02-17T17:25:30.909Z,6.92
2023-02-17T17:27:59.458Z,6.90
2023-02-17T17:30:32.651Z,6.83
2023-02-17T17:33:00.828Z,6.71
2023-02-17T17:35:31.329Z,6.63
2023-02-17T17:38:00.116Z,6.50
2023-02-17T17:40:30.608Z,6.36
2023-02-17T17:42:59.057Z,6.34
2023-02-17T17:45:27.612Z,6.30
2023-02-17T17:47:55.717Z,6.14
2023-02-17T17:50:25.346Z,6.08
2023-02-17T17:52:54.956Z,6.05
2023-02-17T17:55:23.040Z,5.99
2023-02-17T17:57:51.145Z,5.95
2023-02-17T18:00:20.278Z,6.06
2023-02-17T18:02:48.573Z,6.25
2023-02-17T18:05:16.926Z,6.41
2023-02-17T18:07:47.960Z,6.43
2023-02-17T18:10:17.975Z,6.42
2023-02-17T18:12:47.747Z,6.32
2023-02-17T18:15:16.873Z,6.29
2023-02-17T18:17:45.221Z,6.29
2023-02-17T18:20:13.880Z,6.20
2023-02-17T18:22:42.402Z,6.13
2023-02-17T18:25:11.232Z,6.18
2023-02-17T18:27:42.319Z,6.35
2023-02-17T18:30:12.121Z,6.41
2023-02-17T18:32:40.240Z,6.36
2023-02-17T18:35:09.135Z,6.35
2023-02-17T18:37:37.473Z,6.38
2023-02-17T18:40:06.357Z,6.30
2023-02-17T18:42:34.632Z,6.27
2023-02-17T18:45:04.948Z,6.15
2023-02-17T18:47:33.409Z,6.28
2023-02-17T18:50:01.526Z,6.23
2023-02-17T18:52:29.610Z,6.15
2023-02-17T18:54:57.715Z,6.07
2023-02-17T18:57:25.926Z,6.09
2023-02-17T18:59:53.994Z,6.11
2023-02-17T19:02:23.540Z,6.11
2023-02-17T19:04:54.364Z,6.10
2023-02-17T19:07:23.126Z,6.06
2023-02-17T19:09:53.332Z,6.09
2023-02-17T19:12:21.846Z,6.09
2023-02-17T19:14:55.882Z,6.13
2023-02-17T19:17:26.657Z,6.08
2023-02-17T19:19:54.747Z,6.06
2023-02-17T19:22:22.974Z,6.04
2023-02-17T19:24:53.123Z,6.01
2023-02-17T19:27:21.876Z,6.04
2023-02-17T19:29:50.064Z,6.06
2023-02-17T19:32:18.298Z,6.18
2023-02-17T19:34:48.029Z,6.25
2023-02-17T19:37:16.437Z,6.22
2023-02-17T19:39:45.663Z,6.35
2023-02-17T19:42:13.918Z,6.39
2023-02-17T19:44:42.164Z,6.58
2023-02-17T19:47:10.330Z,6.60
2023-02-17T19:49:38.457Z,6.55
2023-02-17T19:52:08.921Z,6.49
2023-02-17T19:54:37.121Z,6.60
2023-02-17T19:57:05.393Z,6.51
2023-02-17T19:59:34.465Z,6.52
2023-02-17T20:02:02.764Z,6.59
2023-02-17T20:04:30.878Z,6.51
2023-02-17T20:06:59.030Z,6.76
2023-02-17T20:09:28.696Z,6.71
2023-02-17T20:11:56.907Z,6.74
2023-02-17T20:14:25.023Z,6.97
2023-02-17T20:16:55.691Z,7.25
2023-02-17T20:19:24.198Z,7.32
2023-02-17T20:21:52.863Z,7.44
2023-02-17T20:24:21.440Z,7.44
2023-02-17T20:26:53.731Z,7.32
2023-02-17T20:29:22.464Z,7.40
2023-02-17T20:31:51.023Z,7.25
2023-02-17T20:34:28.243Z,7.19
2023-02-17T20:36:57.439Z,7.25
2023-02-17T20:39:26.456Z,7.30
2023-02-17T20:41:56.966Z,7.36
2023-02-17T20:44:27.731Z,7.43
2023-02-17T20:46:57.072Z,7.53
2023-02-17T20:49:25.690Z,7.76
2023-02-17T20:51:54.445Z,7.83
2023-02-17T20:54:24.726Z,7.82
2023-02-17T20:56:53.403Z,7.86
2023-02-17T20:59:23.095Z,7.84
2023-02-17T21:01:51.193Z,7.96
2023-02-17T21:04:19.567Z,8.03
2023-02-17T21:06:48.205Z,8.09
2023-02-17T21:09:19.065Z,8.11
2023-02-17T21:11:47.994Z,8.17
2023-02-17T21:14:16.431Z,7.96
2023-02-17T21:16:46.499Z,8.08
2023-02-17T21:19:14.872Z,8.01
2023-02-17T21:21:42.975Z,7.99
2023-02-17T21:24:11.400Z,7.96
2023-02-17T21:26:39.765Z,8.04
2023-02-17T21:29:08.168Z,8.07
2023-02-17T21:31:37.216Z,8.21
2023-02-17T21:34:08.883Z,8.20
2023-02-17T21:36:37.063Z,8.20
2023-02-17T21:39:05.928Z,8.20
2023-02-17T21:41:34.215Z,8.16
2023-02-17T21:44:19.935Z,8.19
2023-02-17T21:46:48.082Z,8.26
2023-02-17T21:49:17.740Z,8.30
2023-02-17T21:51:45.925Z,8.38
2023-02-17T21:54:14.172Z,8.41
2023-02-17T21:56:42.426Z,8.42
2023-02-17T21:59:10.759Z,8.39
2023-02-17T22:01:39.026Z,8.41
2023-02-17T22:04:07.223Z,8.31
2023-02-17T22:06:38.566Z,8.21
2023-02-17T22:09:08.075Z,8.13
2023-02-17T22:11:37.951Z,8.01
2023-02-17T22:14:10.218Z,8.02
2023-02-17T22:16:39.423Z,7.95
2023-02-17T22:19:11.050Z,7.83
2023-02-17T22:21:42.461Z,7.82
2023-02-17T22:24:10.794Z,7.78
2023-02-17T22:26:38.972Z,7.74
2023-02-17T22:29:08.125Z,7.61
2023-02-17T22:31:36.485Z,7.61
2023-02-17T22:34:07.626Z,7.56
2023-02-17T22:36:38.204Z,7.53
2023-02-17T22:39:09.574Z,7.59
2023-02-17T22:41:38.885Z,7.58
2023-02-17T22:44:07.217Z,7.56
2023-02-17T22:46:36.102Z,7.58
2023-02-17T22:49:04.451Z,7.60
2023-02-17T22:51:36.656Z,7.67
2023-02-17T22:54:05.364Z,7.70
2023-02-17T22:56:35.020Z,7.63
2023-02-17T22:59:05.008Z,7.59
2023-02-17T23:01:35.074Z,7.65
2023-02-17T23:04:03.740Z,7.58
2023-02-17T23:06:35.061Z,7.57
2023-02-17T23:09:04.172Z,7.50
2023-02-17T23:11:51.120Z,7.49
2023-02-17T23:14:21.138Z,7.55
2023-02-17T23:16:49.825Z,7.59
2023-02-17T23:19:20.253Z,7.68
2023-02-17T23:21:51.459Z,7.58
2023-02-17T23:24:21.469Z,7.66
2023-02-17T23:26:51.570Z,7.72
2023-02-17T23:29:20.376Z,7.75
2023-02-17T23:31:48.736Z,7.70
2023-02-17T23:34:17.884Z,7.67
2023-02-17T23:36:47.069Z,7.68
2023-02-17T23:39:16.178Z,7.66
2023-02-17T23:41:44.490Z,7.55
2023-02-17T23:44:16.296Z,7.57
2023-02-17T23:46:46.019Z,7.64
2023-02-17T23:49:16.706Z,7.66
2023-02-17T23:51:46.925Z,7.60
2023-02-17T23:54:15.785Z,7.62
2023-02-17T23:56:44.083Z,7.65
2023-02-17T23:59:13.798Z,7.74
